createdAt,value
2019-03-11T00:01:39.129Z,4.80
2019-03-11T00:04:22.224Z,4.80
2019-03-11T00:07:04.462Z,4.80
2019-03-11T00:09:47.714Z,4.80
2019-03-11T00:12:29.647Z,4.80
2019-03-11T00:15:00.075Z,4.90
2019-03-11T00:17:42.348Z,4.90
2019-03-11T00:20:24.125Z,5.00
2019-03-11T00:23:06.699Z,5.10
2019-03-11T00:25:48.442Z,5.10
2019-03-11T00:28:30.480Z,5.10
2019-03-11T00:31:12.441Z,5.20
2019-03-11T00:33:55.181Z,5.20
2019-03-11T00:36:37.150Z,5.20
2019-03-11T00:39:19.147Z,5.20
2019-03-11T00:42:00.992Z,5.30
2019-03-11T00:44:43.136Z,5.30
2019-03-11T00:47:24.918Z,5.10
2019-03-11T00:50:06.612Z,5.00
2019-03-11T00:52:37.118Z,4.90
2019-03-11T00:55:26.371Z,4.80
2019-03-11T00:58:08.438Z,4.70
2019-03-11T01:00:50.512Z,4.70
2019-03-11T01:03:32.731Z,4.60
2019-03-11T01:06:14.751Z,4.30
2019-03-11T01:08:56.708Z,4.00
2019-03-11T01:11:38.620Z,3.80
2019-03-11T01:14:21.090Z,3.70
2019-03-11T01:17:03.406Z,3.50
2019-03-11T01:19:45.549Z,3.40
2019-03-11T01:22:28.084Z,3.30
2019-03-11T01:25:10.478Z,3.40
2019-03-11T01:27:52.505Z,3.30
2019-03-11T01:30:34.558Z,3.30
2019-03-11T01:33:16.707Z,3.40
2019-03-11T01:35:58.958Z,3.50
2019-03-11T01:38:41.046Z,3.50
2019-03-11T01:41:23.275Z,3.60
2019-03-11T01:44:05.505Z,3.60
2019-03-11T01:46:47.639Z,3.60
2019-03-11T01:49:29.819Z,3.60
2019-03-11T01:52:12.124Z,3.60
2019-03-11T01:54:54.106Z,3.60
2019-03-11T01:57:35.678Z,3.70
2019-03-11T02:00:17.843Z,3.70
2019-03-11T02:02:59.851Z,3.70
2019-03-11T02:05:41.831Z,3.70
2019-03-11T02:08:23.709Z,3.80
2019-03-11T02:11:05.854Z,3.80
2019-03-11T02:13:47.567Z,3.80
2019-03-11T02:16:29.507Z,3.80
2019-03-11T02:19:12.374Z,3.90
2019-03-11T02:21:54.056Z,3.90
2019-03-11T02:24:36.178Z,4.00
2019-03-11T02:27:19.271Z,4.00
2019-03-11T02:30:02.867Z,4.00
2019-03-11T02:32:45.494Z,4.10
2019-03-11T02:35:27.199Z,4.00
2019-03-11T02:38:09.076Z,3.90
2019-03-11T02:40:51.336Z,3.80
2019-03-11T02:43:33.582Z,3.70
2019-03-11T02:46:15.864Z,3.70
2019-03-11T02:48:58.058Z,3.70
2019-03-11T02:51:40.062Z,3.70
2019-03-11T02:54:21.881Z,3.70
2019-03-11T02:57:03.804Z,3.70
2019-03-11T02:59:45.641Z,3.70
2019-03-11T03:02:52.310Z,3.70
2019-03-11T03:05:38.221Z,3.70
2019-03-11T03:08:20.193Z,3.70
2019-03-11T03:10:50.442Z,3.60
2019-03-11T03:13:32.392Z,3.70
2019-03-11T03:16:14.627Z,3.70
2019-03-11T03:18:56.806Z,3.70
2019-03-11T03:21:38.492Z,3.70
2019-03-11T03:24:21.620Z,3.70
2019-03-11T03:27:03.830Z,3.70
2019-03-11T03:29:46.114Z,3.80
2019-03-11T03:32:28.267Z,3.80
2019-03-11T03:35:10.555Z,3.80
2019-03-11T03:37:52.778Z,3.90
2019-03-11T03:40:34.992Z,3.80
2019-03-11T03:43:18.315Z,3.80
2019-03-11T03:46:00.173Z,3.70
2019-03-11T03:48:44.198Z,3.70
2019-03-11T03:51:26.702Z,3.60
2019-03-11T03:54:08.563Z,3.60
2019-03-11T03:56:53.750Z,3.50
2019-03-11T03:59:34.332Z,3.50
2019-03-11T04:02:16.553Z,3.50
2019-03-11T04:04:58.490Z,3.50
2019-03-11T04:07:40.887Z,3.50
2019-03-11T04:10:22.913Z,3.50
2019-03-11T04:13:04.894Z,3.50
2019-03-11T04:15:47.242Z,3.50
2019-03-11T04:18:29.295Z,3.60
2019-03-11T04:20:59.633Z,3.60
2019-03-11T04:23:29.974Z,3.60
2019-03-11T04:26:00.187Z,3.60
2019-03-11T04:28:49.476Z,3.60
2019-03-11T04:31:32.577Z,3.60
2019-03-11T04:34:14.770Z,3.50
2019-03-11T04:36:56.751Z,3.50
2019-03-11T04:39:39.285Z,3.60
2019-03-11T04:42:21.615Z,3.60
2019-03-11T04:45:03.691Z,3.60
2019-03-11T04:47:45.654Z,3.60
2019-03-11T04:50:27.789Z,3.60
2019-03-11T04:53:09.691Z,3.60
2019-03-11T04:55:51.659Z,3.60
2019-03-11T05:01:14.638Z,3.70
2019-03-11T05:03:56.507Z,3.70
2019-03-11T05:06:38.472Z,3.70
2019-03-11T05:09:20.609Z,3.80
2019-03-11T05:12:02.715Z,3.80
2019-03-11T05:14:44.284Z,3.80
2019-03-11T05:17:25.862Z,3.50
2019-03-11T05:20:07.772Z,3.10
2019-03-11T05:22:49.529Z,2.80
2019-03-11T05:25:31.770Z,2.60
2019-03-11T05:28:13.850Z,2.60
2019-03-11T05:30:57.626Z,2.60
2019-03-11T05:33:39.753Z,2.70
2019-03-11T05:36:21.482Z,2.70
2019-03-11T05:39:04.738Z,2.70
2019-03-11T05:41:47.832Z,2.80
2019-03-11T05:44:29.907Z,2.80
2019-03-11T05:47:11.935Z,2.90
2019-03-11T05:49:53.826Z,3.00
2019-03-11T05:52:36.005Z,3.10
2019-03-11T05:55:17.830Z,3.00
2019-03-11T05:57:59.771Z,2.90
2019-03-11T06:00:41.669Z,2.80
2019-03-11T06:03:24.060Z,2.70
2019-03-11T06:06:05.862Z,2.70
2019-03-11T06:08:48.055Z,2.60
2019-03-11T06:11:29.730Z,2.60
2019-03-11T06:14:11.762Z,2.60
2019-03-11T06:16:53.796Z,2.60
2019-03-11T06:19:35.756Z,2.60
2019-03-11T06:22:21.010Z,2.70
2019-03-11T06:25:03.151Z,2.60
2019-03-11T06:27:45.206Z,2.70
2019-03-11T06:30:27.380Z,2.70
2019-03-11T06:33:09.390Z,2.70
2019-03-11T06:35:51.514Z,2.80
2019-03-11T06:38:34.730Z,2.80
2019-03-11T06:41:16.750Z,2.90
2019-03-11T06:43:59.098Z,2.90
2019-03-11T06:46:40.687Z,2.80
2019-03-11T06:49:22.584Z,2.80
2019-03-11T06:52:04.662Z,2.90
2019-03-11T06:54:47.714Z,2.90
2019-03-11T06:57:29.889Z,3.00
2019-03-11T07:00:11.748Z,3.10
2019-03-11T07:02:53.405Z,3.10
2019-03-11T07:05:35.500Z,3.30
2019-03-11T07:08:17.363Z,3.40
2019-03-11T07:10:59.871Z,3.60
2019-03-11T07:13:41.919Z,3.60
2019-03-11T07:16:25.089Z,3.60
2019-03-11T07:19:07.720Z,3.60
2019-03-11T07:21:49.549Z,3.60
2019-03-11T07:24:31.577Z,3.40
2019-03-11T07:27:13.438Z,3.30
2019-03-11T07:29:55.264Z,3.30
2019-03-11T07:32:37.254Z,3.30
2019-03-11T07:35:19.064Z,3.20
2019-03-11T07:38:01.419Z,3.10
2019-03-11T07:40:43.481Z,3.00
2019-03-11T07:43:25.766Z,2.80
2019-03-11T07:46:07.727Z,2.70
2019-03-11T07:48:49.819Z,2.60
2019-03-11T07:51:32.130Z,2.60
2019-03-11T07:54:14.368Z,2.60
2019-03-11T07:56:56.534Z,2.70
2019-03-11T07:59:38.635Z,2.80
2019-03-11T08:02:20.750Z,2.90
2019-03-11T08:05:02.511Z,3.00
2019-03-11T08:07:44.621Z,3.10
2019-03-11T08:10:26.969Z,3.20
2019-03-11T08:13:08.930Z,3.40
2019-03-11T08:15:50.770Z,3.90
2019-03-11T08:18:35.305Z,4.40
2019-03-11T08:21:16.636Z,4.60
2019-03-11T08:23:59.031Z,4.50
2019-03-11T08:26:41.036Z,4.10
2019-03-11T08:29:23.203Z,3.90
2019-03-11T08:32:05.390Z,3.80
2019-03-11T08:34:47.143Z,3.80
2019-03-11T08:37:29.122Z,3.70
2019-03-11T08:40:11.012Z,3.60
2019-03-11T08:42:52.546Z,3.60
2019-03-11T08:45:34.663Z,3.60
2019-03-11T08:48:16.537Z,3.50
2019-03-11T08:50:58.627Z,3.60
2019-03-11T08:53:28.847Z,3.50
2019-03-11T08:55:59.068Z,3.60
2019-03-11T08:58:29.277Z,3.70
2019-03-11T09:00:59.478Z,3.80
2019-03-11T09:03:30.220Z,3.80
2019-03-11T09:06:01.520Z,3.90
2019-03-11T09:08:42.991Z,4.00
2019-03-11T09:11:25.233Z,4.00
2019-03-11T09:14:07.507Z,4.10
2019-03-11T09:16:49.669Z,4.00
2019-03-11T09:19:31.843Z,4.00
2019-03-11T09:22:13.938Z,3.80
2019-03-11T09:24:55.878Z,3.90
2019-03-11T09:27:38.034Z,4.10
2019-03-11T09:30:20.493Z,4.20
2019-03-11T09:33:02.630Z,4.30
2019-03-11T09:35:44.549Z,4.40
2019-03-11T09:38:26.634Z,4.40
2019-03-11T09:41:08.694Z,4.60
2019-03-11T09:43:50.711Z,4.70
2019-03-11T09:46:32.405Z,4.70
2019-03-11T09:49:14.583Z,5.00
2019-03-11T09:51:56.830Z,5.40
2019-03-11T09:57:28.046Z,5.90
2019-03-11T10:00:11.271Z,6.00
2019-03-11T10:02:51.486Z,6.20
2019-03-11T10:05:51.651Z,6.10
2019-03-11T10:08:33.887Z,6.20
2019-03-11T10:11:16.313Z,6.20
2019-03-11T10:13:58.658Z,6.10
2019-03-11T10:16:40.767Z,5.80
2019-03-11T10:19:22.920Z,5.60
2019-03-11T10:22:05.906Z,5.70
2019-03-11T10:24:36.610Z,5.60
2019-03-11T10:27:06.928Z,5.70
2019-03-11T10:29:38.101Z,5.70
2019-03-11T10:32:08.332Z,5.80
2019-03-11T10:34:38.578Z,5.80
2019-03-11T10:37:27.801Z,5.80
2019-03-11T10:40:09.655Z,6.00
2019-03-11T10:42:51.948Z,6.00
2019-03-11T10:45:34.205Z,5.90
2019-03-11T10:48:16.325Z,5.80
2019-03-11T10:50:58.634Z,5.90
2019-03-11T10:53:40.620Z,5.90
2019-03-11T10:56:22.924Z,5.90
2019-03-11T10:59:05.177Z,6.00
2019-03-11T11:01:47.059Z,6.20
2019-03-11T11:04:28.904Z,6.50
2019-03-11T11:07:11.049Z,6.50
2019-03-11T11:09:53.158Z,6.30
2019-03-11T11:12:34.930Z,6.30
2019-03-11T11:15:18.821Z,6.30
2019-03-11T11:18:01.074Z,6.20
2019-03-11T11:20:43.169Z,6.30
2019-03-11T11:23:25.094Z,6.40
2019-03-11T11:26:07.375Z,6.40
2019-03-11T11:28:49.991Z,6.50
2019-03-11T11:31:32.412Z,6.80
2019-03-11T11:34:14.637Z,7.10
2019-03-11T11:36:56.594Z,6.90
2019-03-11T11:39:38.742Z,6.90
2019-03-11T11:42:20.838Z,6.90
2019-03-11T11:45:02.740Z,7.00
2019-03-11T11:47:44.874Z,7.10
2019-03-11T11:50:27.138Z,7.10
2019-03-11T11:53:08.791Z,7.10
2019-03-11T11:55:57.665Z,7.10
2019-03-11T11:58:33.718Z,7.10
2019-03-11T12:01:15.660Z,6.90
2019-03-11T12:03:57.958Z,6.70
2019-03-11T12:06:40.176Z,6.90
2019-03-11T12:09:22.449Z,7.20
2019-03-11T12:11:52.887Z,7.50
2019-03-11T12:14:42.127Z,7.80
2019-03-11T12:17:23.986Z,8.00
2019-03-11T12:20:06.139Z,7.90
2019-03-11T12:22:36.553Z,8.20
2019-03-11T12:25:25.894Z,8.40
2019-03-11T12:28:07.797Z,8.40
2019-03-11T12:30:50.102Z,8.30
2019-03-11T12:33:32.039Z,8.40
2019-03-11T12:36:14.412Z,8.30
2019-03-11T12:38:56.530Z,8.10
2019-03-11T12:41:38.707Z,7.80
2019-03-11T12:44:21.213Z,7.60
2019-03-11T12:47:03.638Z,7.40
2019-03-11T12:49:45.559Z,7.00
2019-03-11T12:52:27.885Z,6.80
2019-03-11T12:55:09.802Z,6.90
2019-03-11T12:57:53.037Z,7.20
2019-03-11T13:00:35.221Z,7.40
2019-03-11T13:03:17.251Z,7.40
2019-03-11T13:05:59.402Z,7.50
2019-03-11T13:08:41.721Z,7.40
2019-03-11T13:11:23.867Z,7.40
2019-03-11T13:14:05.891Z,7.50
2019-03-11T13:16:47.734Z,7.40
2019-03-11T13:19:29.599Z,7.30
2019-03-11T13:22:11.081Z,7.30
2019-03-11T13:24:53.046Z,7.30
2019-03-11T13:27:35.098Z,7.10
2019-03-11T13:30:17.213Z,6.70
2019-03-11T13:32:59.407Z,6.60
2019-03-11T13:35:41.862Z,6.60
2019-03-11T13:38:24.752Z,6.60
2019-03-11T13:41:06.877Z,6.60
2019-03-11T13:43:48.972Z,6.50
2019-03-11T13:46:20.798Z,6.50
2019-03-11T13:49:02.753Z,6.30
2019-03-11T13:51:46.682Z,6.30
2019-03-11T13:54:28.810Z,6.20
2019-03-11T13:57:10.730Z,6.40
2019-03-11T13:59:52.254Z,6.50
2019-03-11T14:02:34.278Z,6.60
2019-03-11T14:05:16.570Z,6.80
2019-03-11T14:07:58.470Z,6.80
2019-03-11T14:10:40.549Z,6.70
2019-03-11T14:13:23.021Z,6.30
2019-03-11T14:16:04.898Z,6.20
2019-03-11T14:18:47.145Z,6.00
2019-03-11T14:21:29.614Z,5.90
2019-03-11T14:24:11.581Z,5.80
2019-03-11T14:26:53.778Z,5.80
2019-03-11T14:29:35.852Z,6.00
2019-03-11T14:32:18.114Z,6.30
2019-03-11T14:35:01.475Z,6.50
2019-03-11T14:37:44.450Z,6.80
2019-03-11T14:40:26.387Z,6.90
2019-03-11T14:43:08.556Z,7.00
2019-03-11T14:45:50.523Z,7.20
2019-03-11T14:48:32.770Z,7.20
2019-03-11T14:51:15.346Z,7.20
2019-03-11T14:53:56.802Z,7.10
2019-03-11T14:56:38.645Z,7.20
2019-03-11T14:59:20.753Z,7.30
2019-03-11T15:02:02.684Z,7.50
2019-03-11T15:04:44.338Z,7.60
2019-03-11T15:07:26.203Z,7.80
2019-03-11T15:10:07.753Z,7.80
2019-03-11T15:12:49.194Z,7.90
2019-03-11T15:15:31.543Z,8.10
2019-03-11T15:18:13.658Z,8.10
2019-03-11T15:20:55.783Z,7.90
2019-03-11T15:23:37.729Z,7.90
2019-03-11T15:26:25.162Z,7.80
2019-03-11T15:29:03.176Z,7.80
2019-03-11T15:31:45.266Z,7.80
2019-03-11T15:34:27.074Z,7.70
2019-03-11T15:37:08.979Z,7.70
2019-03-11T15:39:50.816Z,7.60
2019-03-11T15:42:32.960Z,7.60
2019-03-11T15:45:14.822Z,7.60
2019-03-11T15:47:56.800Z,7.50
2019-03-11T15:50:40.651Z,7.60
2019-03-11T15:53:22.244Z,7.70
2019-03-11T15:56:04.452Z,7.80
2019-03-11T15:58:46.342Z,7.80
2019-03-11T16:01:28.629Z,7.70
2019-03-11T16:04:10.677Z,7.60
2019-03-11T16:06:52.959Z,7.50
2019-03-11T16:09:34.822Z,7.50
2019-03-11T16:12:16.917Z,7.50
2019-03-11T16:14:59.198Z,7.60
2019-03-11T16:17:40.724Z,7.60
2019-03-11T16:23:33.294Z,7.50
2019-03-11T16:26:15.338Z,7.50
2019-03-11T16:28:57.323Z,7.40
2019-03-11T16:31:39.292Z,7.40
2019-03-11T16:37:25.078Z,7.20
2019-03-11T16:40:07.248Z,7.10
2019-03-11T16:42:49.416Z,7.00
2019-03-11T16:45:31.882Z,7.00
2019-03-11T16:48:14.069Z,7.00
2019-03-11T16:50:56.129Z,6.90
2019-03-11T16:53:38.160Z,6.90
2019-03-11T16:56:20.219Z,6.90
2019-03-11T16:59:02.508Z,6.90
2019-03-11T17:01:44.639Z,6.80
2019-03-11T17:04:26.807Z,6.80
2019-03-11T17:07:09.185Z,6.70
2019-03-11T17:09:51.047Z,6.60
2019-03-11T17:12:22.321Z,6.60
2019-03-11T17:15:11.726Z,6.50
2019-03-11T17:17:41.991Z,6.40
2019-03-11T17:20:31.236Z,6.30
2019-03-11T17:23:13.359Z,6.30
2019-03-11T17:25:55.530Z,6.20
2019-03-11T17:28:38.945Z,6.20
2019-03-11T17:31:20.958Z,6.20
2019-03-11T17:34:03.220Z,6.30
2019-03-11T17:36:45.743Z,6.30
2019-03-11T17:39:27.776Z,6.30
2019-03-11T17:42:09.226Z,6.30
2019-03-11T17:44:51.310Z,6.40
2019-03-11T17:47:33.366Z,6.40
2019-03-11T17:50:15.347Z,6.40
2019-03-11T17:52:57.702Z,6.50
2019-03-11T17:55:39.835Z,6.40
2019-03-11T17:58:21.772Z,6.40
2019-03-11T18:01:03.623Z,6.40
2019-03-11T18:03:45.730Z,6.40
2019-03-11T18:06:28.138Z,6.30
2019-03-11T18:09:10.158Z,6.20
2019-03-11T18:11:52.273Z,6.20
2019-03-11T18:14:34.699Z,6.10
2019-03-11T18:17:16.692Z,6.10
2019-03-11T18:19:58.618Z,6.10
2019-03-11T18:22:40.594Z,6.10
2019-03-11T18:25:22.963Z,6.10
2019-03-11T18:28:04.504Z,6.10
2019-03-11T18:30:46.409Z,6.10
2019-03-11T18:33:28.969Z,6.10
2019-03-11T18:36:11.444Z,6.10
2019-03-11T18:38:42.104Z,6.10
2019-03-11T18:41:23.758Z,6.10
2019-03-11T18:44:06.063Z,6.10
2019-03-11T18:46:49.199Z,6.10
2019-03-11T18:49:31.506Z,6.10
2019-03-11T18:52:13.388Z,6.10
2019-03-11T18:54:55.825Z,6.10
2019-03-11T18:57:39.839Z,6.10
2019-03-11T19:00:22.265Z,6.00
2019-03-11T19:03:04.288Z,6.10
2019-03-11T19:05:46.483Z,6.00
2019-03-11T19:08:28.513Z,6.00
2019-03-11T19:11:10.694Z,6.00
2019-03-11T19:13:53.244Z,6.00
2019-03-11T19:16:35.905Z,6.00
2019-03-11T19:19:18.149Z,5.90
2019-03-11T19:22:02.055Z,5.90
2019-03-11T19:24:44.040Z,5.90
2019-03-11T19:27:26.273Z,5.90
2019-03-11T19:30:08.185Z,5.90
2019-03-11T19:32:50.395Z,5.90
2019-03-11T19:35:32.150Z,5.80
2019-03-11T19:38:14.040Z,5.90
2019-03-11T19:40:56.434Z,5.80
2019-03-11T19:43:38.033Z,5.80
2019-03-11T19:46:19.974Z,5.80
2019-03-11T19:49:02.123Z,5.80
2019-03-11T19:51:44.244Z,5.80
2019-03-11T19:54:26.242Z,5.80
2019-03-11T19:57:08.318Z,5.80
2019-03-11T19:59:50.540Z,5.80
2019-03-11T20:02:32.348Z,5.80
2019-03-11T20:05:14.153Z,5.80
2019-03-11T20:07:56.242Z,5.80
2019-03-11T20:10:38.300Z,5.80
2019-03-11T20:13:20.699Z,5.70
2019-03-11T20:16:03.235Z,5.80
2019-03-11T20:18:45.630Z,5.70
2019-03-11T20:21:27.680Z,5.70
2019-03-11T20:24:10.016Z,5.60
2019-03-11T20:26:51.800Z,5.60
2019-03-11T20:29:34.094Z,5.50
2019-03-11T20:32:17.814Z,5.50
2019-03-11T20:35:00.454Z,5.40
2019-03-11T20:37:42.978Z,5.40
2019-03-11T20:40:25.573Z,5.40
2019-03-11T20:43:07.262Z,5.30
2019-03-11T20:45:49.414Z,5.30
2019-03-11T20:48:31.819Z,5.30
2019-03-11T20:51:13.698Z,5.30
2019-03-11T20:53:56.124Z,5.30
2019-03-11T20:56:38.333Z,5.40
2019-03-11T20:59:20.492Z,5.40
2019-03-11T21:02:02.657Z,5.40
2019-03-11T21:04:34.333Z,5.30
2019-03-11T21:07:30.966Z,5.40
2019-03-11T21:10:12.975Z,5.40
2019-03-11T21:12:55.149Z,5.40
2019-03-11T21:15:37.405Z,5.40
2019-03-11T21:18:19.358Z,5.40
2019-03-11T21:21:05.137Z,5.30
2019-03-11T21:23:45.461Z,5.30
2019-03-11T21:26:27.706Z,5.20
2019-03-11T21:29:10.381Z,5.10
2019-03-11T21:31:53.051Z,5.00
2019-03-11T21:34:34.813Z,5.00
2019-03-11T21:37:17.126Z,5.00
2019-03-11T21:39:59.279Z,4.90
2019-03-11T21:42:41.433Z,4.80
2019-03-11T21:45:33.647Z,4.80
2019-03-11T21:48:07.483Z,4.80
2019-03-11T21:50:49.557Z,4.70
2019-03-11T21:53:34.031Z,4.70
2019-03-11T21:56:04.390Z,4.60
2019-03-11T21:58:46.195Z,4.60
2019-03-11T22:01:28.374Z,4.60
2019-03-11T22:04:10.424Z,4.50
2019-03-11T22:06:52.692Z,4.50
2019-03-11T22:09:34.797Z,4.50
2019-03-11T22:12:17.172Z,4.50
2019-03-11T22:14:59.444Z,4.40
2019-03-11T22:17:41.948Z,4.40
2019-03-11T22:20:24.086Z,4.40
2019-03-11T22:23:06.486Z,4.40
2019-03-11T22:25:48.614Z,4.30
2019-03-11T22:28:30.879Z,4.30
2019-03-11T22:31:12.527Z,4.30
2019-03-11T22:33:54.598Z,4.30
2019-03-11T22:36:36.306Z,4.30
2019-03-11T22:39:18.255Z,4.30
2019-03-11T22:42:00.487Z,4.20
2019-03-11T22:44:42.504Z,4.20
2019-03-11T22:47:24.590Z,4.20
2019-03-11T22:50:07.012Z,4.30
2019-03-11T22:52:49.154Z,4.20
2019-03-11T22:55:31.346Z,4.20
2019-03-11T22:58:13.655Z,4.20
2019-03-11T23:04:09.432Z,4.20
2019-03-11T23:06:51.094Z,4.20
2019-03-11T23:09:33.504Z,4.10
2019-03-11T23:12:15.603Z,4.20
2019-03-11T23:14:46.030Z,4.10
2019-03-11T23:17:35.307Z,4.00
2019-03-11T23:20:17.481Z,4.00
2019-03-11T23:22:47.864Z,4.00
2019-03-11T23:25:29.377Z,4.00
2019-03-11T23:28:11.545Z,4.00
2019-03-11T23:30:53.725Z,4.00
2019-03-11T23:33:35.632Z,3.90
2019-03-11T23:36:18.018Z,4.00
2019-03-11T23:38:48.319Z,4.00
2019-03-11T23:41:30.442Z,4.00
2019-03-11T23:44:12.447Z,3.90
2019-03-11T23:46:54.794Z,3.90
2019-03-11T23:49:37.038Z,3.80
2019-03-11T23:52:18.920Z,3.80
2019-03-11T23:54:49.178Z,3.80
2019-03-11T23:57:30.827Z,3.80
